createdAt,value
2019-05-25T00:01:16.165Z,15.40
2019-05-25T00:03:49.057Z,10.20
2019-05-25T00:06:17.934Z,11.57
2019-05-25T00:08:49.324Z,9.30
2019-05-25T00:11:18.117Z,8.77
2019-05-25T00:13:46.679Z,13.90
2019-05-25T00:16:19.894Z,12.10
2019-05-25T00:18:48.504Z,11.97
2019-05-25T00:21:17.056Z,7.87
2019-05-25T00:23:45.695Z,12.47
2019-05-25T00:26:14.219Z,10.63
2019-05-25T00:28:43.726Z,13.90
2019-05-25T00:31:13.734Z,13.05
2019-05-25T00:33:42.295Z,12.80
2019-05-25T00:36:10.759Z,9.90
2019-05-25T00:38:40.763Z,12.97
2019-05-25T00:41:09.267Z,13.97
2019-05-25T00:43:38.942Z,16.50
2019-05-25T00:46:07.477Z,13.78
2019-05-25T00:48:36.055Z,19.30
2019-05-25T00:51:06.019Z,15.80
2019-05-25T00:53:38.881Z,14.53
2019-05-25T00:56:07.466Z,15.03
2019-05-25T00:58:39.052Z,13.35
2019-05-25T01:01:14.593Z,16.40
2019-05-25T01:03:38.765Z,14.23
2019-05-25T01:06:09.535Z,15.53
2019-05-25T01:08:38.211Z,15.00
2019-05-25T01:11:10.171Z,16.77
2019-05-25T01:13:39.863Z,19.13
2019-05-25T01:16:10.105Z,18.73
2019-05-25T01:18:40.529Z,15.93
2019-05-25T01:21:10.120Z,16.23
2019-05-25T01:23:42.321Z,19.90
2019-05-25T01:26:10.782Z,22.17
2019-05-25T01:28:39.329Z,21.77
2019-05-25T01:31:07.849Z,24.03
2019-05-25T01:33:36.520Z,19.73
2019-05-25T01:36:05.402Z,20.17
2019-05-25T01:38:35.446Z,17.27
2019-05-25T01:41:03.942Z,17.33
2019-05-25T01:43:34.212Z,21.43
2019-05-25T01:46:02.730Z,20.13
2019-05-25T01:48:31.280Z,18.57
2019-05-25T01:50:59.812Z,20.53
2019-05-25T01:53:28.503Z,20.62
2019-05-25T01:55:57.022Z,20.17
2019-05-25T01:58:25.576Z,19.23
2019-05-25T02:00:54.145Z,20.02
2019-05-25T02:03:28.283Z,19.50
2019-05-25T02:05:57.978Z,19.13
2019-05-25T02:08:26.668Z,20.50
2019-05-25T02:10:55.223Z,17.97
2019-05-25T02:13:23.856Z,20.73
2019-05-25T02:15:55.535Z,18.90
2019-05-25T02:18:23.999Z,22.57
2019-05-25T02:20:54.110Z,21.43
2019-05-25T02:23:22.674Z,22.57
2019-05-25T02:25:51.309Z,21.70
2019-05-25T02:28:19.833Z,20.95
2019-05-25T02:30:49.718Z,20.53
2019-05-25T02:33:18.260Z,23.43
2019-05-25T02:35:49.530Z,23.83
2019-05-25T02:38:18.087Z,22.37
2019-05-25T02:40:48.080Z,23.63
2019-05-25T02:43:17.296Z,22.90
2019-05-25T02:45:49.648Z,23.83
2019-05-25T02:48:19.723Z,23.70
2019-05-25T02:50:52.933Z,22.17
2019-05-25T02:53:23.694Z,23.03
2019-05-25T02:55:53.803Z,23.80
2019-05-25T02:58:25.075Z,24.00
2019-05-25T03:00:53.836Z,28.17
2019-05-25T03:03:24.815Z,22.17
2019-05-25T03:05:57.806Z,23.00
2019-05-25T03:08:26.464Z,23.60
2019-05-25T03:10:57.398Z,21.67
2019-05-25T03:13:32.403Z,25.23
2019-05-25T03:16:02.255Z,23.97
2019-05-25T03:18:32.164Z,25.30
2019-05-25T03:21:00.630Z,27.50
2019-05-25T03:23:29.126Z,29.87
2019-05-25T03:25:57.621Z,26.43
2019-05-25T03:28:27.184Z,28.40
2019-05-25T03:30:55.772Z,35.13
2019-05-25T03:33:27.453Z,25.10
2019-05-25T03:35:55.927Z,26.97
2019-05-25T03:38:27.233Z,28.30
2019-05-25T03:40:56.852Z,29.00
2019-05-25T03:43:27.967Z,26.27
2019-05-25T03:45:57.645Z,31.07
2019-05-25T03:48:26.199Z,28.77
2019-05-25T03:50:56.308Z,26.93
2019-05-25T03:53:25.923Z,32.33
2019-05-25T03:56:05.328Z,26.65
2019-05-25T03:58:24.747Z,23.93
2019-05-25T04:00:55.456Z,28.60
2019-05-25T04:03:25.293Z,27.20
2019-05-25T04:05:54.865Z,27.53
2019-05-25T04:08:23.414Z,28.43
2019-05-25T04:10:53.105Z,25.13
2019-05-25T04:13:21.845Z,26.10
2019-05-25T04:15:53.010Z,26.77
2019-05-25T04:18:23.116Z,29.47
2019-05-25T04:20:52.389Z,27.00
2019-05-25T04:23:20.951Z,28.50
2019-05-25T04:25:49.497Z,27.20
2019-05-25T04:28:17.976Z,26.03
2019-05-25T04:30:48.075Z,23.80
2019-05-25T04:33:16.541Z,24.57
2019-05-25T04:35:46.634Z,25.50
2019-05-25T04:38:15.099Z,26.80
2019-05-25T04:40:44.593Z,24.27
2019-05-25T04:43:13.144Z,25.95
2019-05-25T04:45:41.643Z,25.13
2019-05-25T04:48:10.190Z,31.83
2019-05-25T04:50:40.767Z,27.13
2019-05-25T04:53:10.339Z,27.07
2019-05-25T04:55:43.049Z,26.17
2019-05-25T04:58:13.073Z,25.37
2019-05-25T05:00:42.911Z,28.00
2019-05-25T05:03:12.513Z,28.67
2019-05-25T05:05:41.007Z,30.83
2019-05-25T05:08:09.645Z,28.42
2019-05-25T05:10:38.126Z,29.93
2019-05-25T05:13:07.999Z,22.43
2019-05-25T05:15:40.085Z,27.15
2019-05-25T05:18:12.852Z,27.27
2019-05-25T05:20:41.404Z,25.30
2019-05-25T05:23:11.048Z,25.13
2019-05-25T05:25:39.557Z,31.60
2019-05-25T05:28:08.102Z,25.10
2019-05-25T05:30:39.967Z,31.80
2019-05-25T05:33:10.367Z,24.40
2019-05-25T05:35:39.394Z,26.03
2019-05-25T05:38:09.056Z,27.80
2019-05-25T05:40:37.692Z,24.77
2019-05-25T05:43:11.015Z,32.10
2019-05-25T05:45:44.382Z,30.43
2019-05-25T05:48:16.059Z,30.93
2019-05-25T05:50:46.200Z,27.13
2019-05-25T05:53:14.741Z,29.50
2019-05-25T05:55:43.330Z,21.83
2019-05-25T05:58:13.182Z,23.53
2019-05-25T06:00:42.899Z,21.13
2019-05-25T06:03:11.444Z,21.30
2019-05-25T06:05:39.906Z,21.23
2019-05-25T06:08:11.491Z,21.13
2019-05-25T06:10:41.269Z,21.13
2019-05-25T06:13:09.816Z,18.37
2019-05-25T06:15:43.804Z,17.03
2019-05-25T06:18:12.367Z,18.40
2019-05-25T06:20:41.874Z,17.67
2019-05-25T06:23:12.518Z,18.90
2019-05-25T06:25:40.607Z,16.70
2019-05-25T06:28:09.182Z,14.20
2019-05-25T06:30:38.703Z,14.97
2019-05-25T06:33:07.181Z,17.70
2019-05-25T06:35:35.796Z,12.27
2019-05-25T06:38:05.083Z,17.23
2019-05-25T06:40:33.732Z,11.70
2019-05-25T06:43:03.301Z,10.77
2019-05-25T06:45:31.934Z,14.00
2019-05-25T06:48:04.272Z,14.23
2019-05-25T06:50:33.609Z,13.47
2019-05-25T06:53:02.266Z,12.57
2019-05-25T06:55:30.745Z,10.03
2019-05-25T06:57:59.231Z,8.30
2019-05-25T07:00:30.991Z,13.67
2019-05-25T07:02:59.679Z,11.63
2019-05-25T07:05:28.156Z,11.13
2019-05-25T07:07:57.425Z,14.03
2019-05-25T07:10:27.524Z,10.80
2019-05-25T07:12:56.084Z,11.25
2019-05-25T07:15:27.324Z,10.40
2019-05-25T07:17:55.851Z,9.47
2019-05-25T07:20:27.944Z,9.38
2019-05-25T07:22:56.566Z,10.35
2019-05-25T07:25:27.760Z,11.83
2019-05-25T07:28:00.125Z,6.77
2019-05-25T07:30:28.509Z,9.17
2019-05-25T07:32:58.536Z,8.60
2019-05-25T07:35:27.104Z,9.07
2019-05-25T07:37:58.429Z,12.07
2019-05-25T07:40:26.924Z,9.07
2019-05-25T07:42:59.403Z,11.23
2019-05-25T07:45:27.893Z,8.50
2019-05-25T07:47:57.908Z,9.33
2019-05-25T07:50:26.409Z,10.83
2019-05-25T07:52:57.055Z,11.33
2019-05-25T07:55:25.525Z,10.40
2019-05-25T07:57:57.109Z,10.43
2019-05-25T08:00:26.335Z,8.90
2019-05-25T08:02:57.693Z,9.10
2019-05-25T08:05:26.243Z,10.30
2019-05-25T08:07:54.756Z,12.33
2019-05-25T08:10:23.287Z,16.00
2019-05-25T08:12:51.793Z,8.97
2019-05-25T08:15:23.219Z,7.07
2019-05-25T08:17:51.696Z,12.23
2019-05-25T08:20:21.167Z,6.07
2019-05-25T08:22:53.139Z,10.57
2019-05-25T08:25:21.705Z,9.37
2019-05-25T08:27:51.411Z,8.85
2019-05-25T08:30:21.456Z,9.07
2019-05-25T08:32:50.131Z,11.07
2019-05-25T08:35:18.601Z,7.97
2019-05-25T08:37:47.201Z,6.83
2019-05-25T08:40:18.918Z,7.33
2019-05-25T08:42:47.518Z,7.60
2019-05-25T08:45:20.297Z,7.17
2019-05-25T08:47:48.851Z,6.70
2019-05-25T08:50:19.337Z,7.53
2019-05-25T08:52:48.015Z,10.00
2019-05-25T08:55:17.901Z,7.97
2019-05-25T08:57:46.734Z,8.07
2019-05-25T09:00:17.633Z,9.23
2019-05-25T09:02:47.664Z,7.17
2019-05-25T09:05:16.494Z,10.77
2019-05-25T09:07:49.486Z,13.23
2019-05-25T09:10:18.925Z,9.30
2019-05-25T09:12:49.024Z,7.97
2019-05-25T09:15:18.817Z,6.83
2019-05-25T09:17:48.802Z,8.90
2019-05-25T09:20:17.500Z,7.20
2019-05-25T09:22:46.050Z,8.00
2019-05-25T09:25:15.499Z,4.63
2019-05-25T09:27:47.405Z,9.17
2019-05-25T09:30:17.222Z,6.60
2019-05-25T09:32:45.818Z,7.67
2019-05-25T09:35:16.297Z,7.67
2019-05-25T09:37:45.563Z,5.73
2019-05-25T09:40:16.475Z,6.80
2019-05-25T09:42:45.074Z,7.90
2019-05-25T09:45:18.032Z,7.00
2019-05-25T09:47:46.582Z,7.83
2019-05-25T09:50:18.889Z,6.73
2019-05-25T09:52:49.063Z,11.03
2019-05-25T09:55:17.610Z,11.90
2019-05-25T09:57:46.165Z,9.07
2019-05-25T10:00:16.686Z,7.73
2019-05-25T10:02:45.347Z,6.40
2019-05-25T10:05:16.052Z,6.83
2019-05-25T10:07:45.571Z,6.67
2019-05-25T10:10:14.516Z,8.00
2019-05-25T10:12:43.888Z,10.03
2019-05-25T10:15:13.239Z,10.43
2019-05-25T10:17:41.761Z,9.70
2019-05-25T10:20:10.562Z,9.08
2019-05-25T10:22:39.542Z,6.33
2019-05-25T10:25:09.026Z,14.00
2019-05-25T10:27:37.493Z,11.03
2019-05-25T10:30:08.252Z,9.70
2019-05-25T10:32:38.136Z,10.03
2019-05-25T10:35:07.698Z,11.23
2019-05-25T10:37:36.466Z,10.07
2019-05-25T10:40:11.183Z,11.83
2019-05-25T10:42:39.910Z,12.03
2019-05-25T10:45:09.562Z,11.47
2019-05-25T10:47:39.507Z,13.07
2019-05-25T10:50:09.813Z,10.17
2019-05-25T10:52:38.666Z,11.17
2019-05-25T10:55:08.989Z,9.63
2019-05-25T10:57:38.155Z,9.83
2019-05-25T11:00:11.794Z,11.80
2019-05-25T11:02:40.422Z,8.37
2019-05-25T11:05:10.801Z,12.53
2019-05-25T11:07:39.408Z,7.77
2019-05-25T11:10:11.035Z,9.23
2019-05-25T11:12:45.552Z,8.53
2019-05-25T11:15:15.596Z,10.25
2019-05-25T11:17:45.696Z,10.47
2019-05-25T11:20:15.411Z,9.53
2019-05-25T11:22:44.950Z,9.17
2019-05-25T11:25:13.953Z,10.03
2019-05-25T11:27:45.243Z,10.87
2019-05-25T11:30:15.763Z,10.30
2019-05-25T11:32:44.971Z,8.23
2019-05-25T11:35:14.119Z,8.23
2019-05-25T11:37:42.592Z,8.60
2019-05-25T11:40:16.121Z,8.67
2019-05-25T11:42:44.626Z,9.17
2019-05-25T11:45:14.501Z,5.93
2019-05-25T11:47:45.045Z,7.00
2019-05-25T11:50:14.092Z,14.77
2019-05-25T11:52:43.503Z,8.53
2019-05-25T11:55:12.661Z,8.23
2019-05-25T11:57:43.359Z,7.33
2019-05-25T12:00:24.304Z,7.23
2019-05-25T12:02:47.719Z,8.80
2019-05-25T12:05:16.882Z,9.30
2019-05-25T12:07:46.908Z,4.43
2019-05-25T12:10:20.501Z,4.67
2019-05-25T12:12:49.027Z,5.73
2019-05-25T12:15:19.160Z,6.60
2019-05-25T12:17:47.696Z,7.27
2019-05-25T12:20:18.293Z,7.03
2019-05-25T12:22:46.839Z,4.90
2019-05-25T12:25:18.450Z,5.90
2019-05-25T12:27:49.259Z,8.17
2019-05-25T12:30:17.885Z,4.77
2019-05-25T12:32:46.549Z,4.83
2019-05-25T12:35:15.297Z,4.73
2019-05-25T12:37:43.763Z,4.10
2019-05-25T12:40:14.955Z,5.60
2019-05-25T12:42:45.855Z,5.87
2019-05-25T12:45:14.491Z,4.37
2019-05-25T12:47:44.673Z,3.63
2019-05-25T12:50:15.133Z,4.70
2019-05-25T12:52:44.915Z,5.27
2019-05-25T12:55:13.520Z,7.43
2019-05-25T12:57:46.843Z,5.60
2019-05-25T13:00:19.778Z,7.27
2019-05-25T13:02:48.317Z,9.33
2019-05-25T13:05:31.182Z,5.83
2019-05-25T13:07:52.629Z,6.63
2019-05-25T13:10:21.429Z,7.77
2019-05-25T13:12:51.217Z,3.77
2019-05-25T13:15:19.680Z,5.43
2019-05-25T13:17:48.302Z,7.40
2019-05-25T13:20:16.860Z,5.17
2019-05-25T13:22:45.315Z,5.70
2019-05-25T13:25:13.972Z,4.50
2019-05-25T13:27:44.039Z,9.27
2019-05-25T13:30:15.269Z,8.00
2019-05-25T13:32:43.923Z,4.80
2019-05-25T13:35:14.423Z,2.72
2019-05-25T13:37:43.159Z,4.42
2019-05-25T13:40:13.623Z,3.17
2019-05-25T13:42:42.219Z,4.33
2019-05-25T13:45:12.204Z,5.97
2019-05-25T13:47:40.728Z,5.23
2019-05-25T13:50:10.837Z,5.07
2019-05-25T13:52:39.524Z,6.10
2019-05-25T13:55:10.444Z,5.87
2019-05-25T13:57:39.132Z,3.47
2019-05-25T14:00:08.611Z,4.05
2019-05-25T14:02:40.119Z,7.92
2019-05-25T14:05:09.115Z,6.27
2019-05-25T14:07:37.616Z,5.97
2019-05-25T14:10:08.566Z,6.53
2019-05-25T14:12:37.998Z,7.20
2019-05-25T14:15:10.649Z,5.20
2019-05-25T14:17:39.154Z,6.67
2019-05-25T14:20:08.845Z,8.03
2019-05-25T14:22:39.363Z,8.47
2019-05-25T14:25:09.197Z,5.97
2019-05-25T14:27:37.720Z,7.37
2019-05-25T14:30:06.989Z,6.80
2019-05-25T14:32:37.969Z,5.47
2019-05-25T14:35:06.978Z,12.20
2019-05-25T14:37:35.561Z,9.43
2019-05-25T14:40:11.333Z,6.97
2019-05-25T14:42:38.575Z,4.50
2019-05-25T14:45:09.071Z,6.33
2019-05-25T14:47:37.597Z,7.22
2019-05-25T14:50:09.978Z,7.03
2019-05-25T14:52:43.044Z,7.87
2019-05-25T14:55:09.746Z,8.17
2019-05-25T14:57:39.641Z,7.80
2019-05-25T15:00:09.704Z,8.00
2019-05-25T15:02:38.333Z,9.75
2019-05-25T15:05:07.162Z,11.43
2019-05-25T15:07:35.809Z,9.03
2019-05-25T15:10:06.753Z,9.43
2019-05-25T15:12:35.249Z,9.33
2019-05-25T15:15:07.636Z,6.23
2019-05-25T15:17:42.969Z,7.10
2019-05-25T15:20:16.265Z,6.00
2019-05-25T15:22:46.972Z,8.30
2019-05-25T15:25:16.574Z,9.67
2019-05-25T15:27:45.967Z,8.13
2019-05-25T15:30:15.349Z,8.57
2019-05-25T15:32:44.063Z,6.07
2019-05-25T15:35:12.766Z,9.17
2019-05-25T15:37:41.313Z,9.58
2019-05-25T15:40:11.071Z,9.40
2019-05-25T15:42:40.862Z,9.33
2019-05-25T15:45:10.654Z,7.67
2019-05-25T15:47:39.287Z,9.30
2019-05-25T15:50:10.355Z,7.40
2019-05-25T15:52:40.501Z,7.87
2019-05-25T15:55:11.736Z,10.33
2019-05-25T15:57:43.722Z,8.37
2019-05-25T16:00:14.749Z,7.57
2019-05-25T16:02:43.420Z,7.97
2019-05-25T16:05:13.768Z,9.97
2019-05-25T16:07:45.401Z,8.70
2019-05-25T16:10:14.446Z,10.47
2019-05-25T16:12:45.797Z,7.93
2019-05-25T16:15:18.483Z,9.67
2019-05-25T16:17:50.043Z,10.03
2019-05-25T16:20:21.638Z,10.67
2019-05-25T16:22:51.735Z,8.07
2019-05-25T16:25:20.325Z,8.60
2019-05-25T16:27:51.272Z,7.77
2019-05-25T16:30:20.091Z,15.60
2019-05-25T16:35:19.701Z,9.40
2019-05-25T16:37:50.918Z,11.23
2019-05-25T16:40:19.750Z,8.60
2019-05-25T16:42:50.902Z,12.68
2019-05-25T16:45:24.976Z,11.95
2019-05-25T16:47:57.516Z,11.57
2019-05-25T16:50:29.017Z,11.17
2019-05-25T16:52:59.727Z,9.08
2019-05-25T16:55:30.876Z,8.03
2019-05-25T16:57:59.404Z,9.17
2019-05-25T17:00:33.077Z,7.30
2019-05-25T17:03:01.612Z,11.27
2019-05-25T17:05:30.200Z,8.50
2019-05-25T17:07:58.924Z,7.90
2019-05-25T17:10:27.564Z,8.43
2019-05-25T17:12:56.148Z,8.83
2019-05-25T17:15:27.412Z,11.68
2019-05-25T17:17:55.979Z,9.10
2019-05-25T17:20:24.574Z,11.50
2019-05-25T17:22:53.214Z,12.00
2019-05-25T17:25:23.790Z,9.43
2019-05-25T17:27:52.190Z,10.23
2019-05-25T17:30:32.439Z,6.70
2019-05-25T17:33:03.731Z,11.97
2019-05-25T17:35:32.320Z,10.47
2019-05-25T17:38:02.440Z,9.40
2019-05-25T17:40:30.930Z,12.13
2019-05-25T17:43:00.864Z,10.17
2019-05-25T17:45:29.398Z,13.40
2019-05-25T17:48:00.417Z,9.80
2019-05-25T17:50:28.902Z,13.60
2019-05-25T17:52:57.456Z,12.40
2019-05-25T17:55:26.224Z,11.33
2019-05-25T17:57:57.285Z,10.47
2019-05-25T18:00:37.934Z,9.00
2019-05-25T18:03:09.262Z,9.97
2019-05-25T18:05:37.794Z,10.60
2019-05-25T18:08:07.458Z,12.37
2019-05-25T18:10:52.258Z,11.07
2019-05-25T18:13:09.743Z,9.80
2019-05-25T18:15:41.246Z,12.98
2019-05-25T18:18:13.511Z,10.23
2019-05-25T18:20:42.115Z,10.17
2019-05-25T18:23:15.227Z,11.07
2019-05-25T18:25:44.778Z,11.70
2019-05-25T18:28:13.359Z,8.07
2019-05-25T18:30:41.862Z,9.17
2019-05-25T18:33:11.131Z,9.28
2019-05-25T18:35:39.661Z,15.30
2019-05-25T18:38:10.052Z,8.67
2019-05-25T18:40:38.506Z,9.27
2019-05-25T18:43:06.731Z,10.60
2019-05-25T18:45:38.357Z,8.13
2019-05-25T18:48:08.167Z,9.47
2019-05-25T18:50:36.770Z,11.07
2019-05-25T18:53:08.348Z,8.53
2019-05-25T18:55:36.894Z,7.83
2019-05-25T18:58:05.643Z,11.60
2019-05-25T19:00:34.197Z,10.18
2019-05-25T19:03:05.085Z,9.13
2019-05-25T19:05:33.566Z,10.30
2019-05-25T19:08:02.205Z,12.10
2019-05-25T19:10:31.977Z,12.67
2019-05-25T19:13:01.461Z,13.13
2019-05-25T19:15:29.953Z,16.27
2019-05-25T19:17:58.428Z,9.43
2019-05-25T19:20:26.991Z,10.87
2019-05-25T19:22:56.601Z,16.63
2019-05-25T19:25:25.236Z,22.57
2019-05-25T19:27:53.792Z,14.70
2019-05-25T19:30:23.897Z,13.83
2019-05-25T19:32:55.649Z,17.27
2019-05-25T19:35:24.195Z,12.10
2019-05-25T19:37:54.282Z,14.73
2019-05-25T19:40:23.079Z,16.62
2019-05-25T19:42:51.649Z,12.30
2019-05-25T19:45:20.461Z,15.83
2019-05-25T19:47:48.921Z,13.62
2019-05-25T19:50:19.105Z,15.83
2019-05-25T19:52:48.822Z,16.60
2019-05-25T19:55:17.509Z,17.07
2019-05-25T19:57:47.125Z,18.17
2019-05-25T20:00:16.057Z,15.87
2019-05-25T20:02:44.521Z,11.83
2019-05-25T20:05:16.767Z,17.43
2019-05-25T20:07:45.090Z,13.87
2019-05-25T20:10:14.973Z,19.63
2019-05-25T20:12:43.612Z,15.63
2019-05-25T20:15:12.561Z,15.77
2019-05-25T20:17:41.166Z,15.20
2019-05-25T20:20:10.881Z,14.13
2019-05-25T20:22:39.563Z,11.17
2019-05-25T20:25:10.158Z,14.17
2019-05-25T20:27:39.608Z,17.13
2019-05-25T20:30:08.799Z,15.05
2019-05-25T20:32:38.679Z,13.20
2019-05-25T20:35:08.582Z,17.60
2019-05-25T20:37:37.160Z,17.20
2019-05-25T20:40:07.771Z,11.70
2019-05-25T20:42:36.490Z,11.73
2019-05-25T20:45:07.519Z,12.17
2019-05-25T20:47:39.955Z,16.67
2019-05-25T20:50:09.764Z,14.40
2019-05-25T20:52:39.949Z,11.53
2019-05-25T20:55:08.903Z,12.57
2019-05-25T20:57:38.922Z,11.53
2019-05-25T21:00:10.134Z,16.43
2019-05-25T21:02:38.962Z,16.23
2019-05-25T21:05:10.402Z,13.40
2019-05-25T21:07:38.956Z,13.43
2019-05-25T21:10:13.328Z,14.00
2019-05-25T21:12:42.010Z,14.03
2019-05-25T21:15:12.597Z,14.10
2019-05-25T21:17:41.084Z,16.47
2019-05-25T21:20:13.326Z,15.60
2019-05-25T21:22:42.175Z,12.80
2019-05-25T21:25:11.333Z,17.87
2019-05-25T21:27:41.284Z,16.77
2019-05-25T21:30:10.215Z,14.90
2019-05-25T21:32:41.460Z,18.37
2019-05-25T21:35:10.542Z,18.87
2019-05-25T21:37:40.871Z,14.73
2019-05-25T21:40:10.374Z,15.87
2019-05-25T21:42:40.362Z,18.63
2019-05-25T21:45:09.710Z,17.87
2019-05-25T21:47:39.847Z,18.83
2019-05-25T21:50:10.115Z,16.80
2019-05-25T21:52:38.885Z,18.23
2019-05-25T21:55:08.070Z,17.87
2019-05-25T21:57:36.614Z,15.13
2019-05-25T22:00:11.303Z,16.40
2019-05-25T22:02:39.841Z,20.53
2019-05-25T22:05:09.567Z,21.33
2019-05-25T22:07:40.792Z,16.10
2019-05-25T22:10:10.995Z,17.82
2019-05-25T22:12:42.086Z,15.70
2019-05-25T22:15:12.211Z,20.33
2019-05-25T22:17:40.701Z,16.93
2019-05-25T22:20:11.832Z,20.23
2019-05-25T22:22:40.549Z,16.90
2019-05-25T22:25:09.536Z,16.50
2019-05-25T22:27:41.340Z,14.77
2019-05-25T22:30:10.171Z,16.80
2019-05-25T22:32:40.036Z,18.17
2019-05-25T22:35:08.739Z,17.80
2019-05-25T22:37:38.275Z,17.70
2019-05-25T22:40:07.688Z,19.37
2019-05-25T22:42:37.244Z,16.50
2019-05-25T22:45:07.880Z,17.53
2019-05-25T22:47:37.995Z,18.37
2019-05-25T22:50:07.310Z,18.03
2019-05-25T22:52:38.644Z,18.87
2019-05-25T22:55:11.882Z,18.23
2019-05-25T22:57:40.398Z,20.97
2019-05-25T23:00:11.311Z,21.50
2019-05-25T23:02:39.970Z,22.53
2019-05-25T23:05:10.600Z,22.53
2019-05-25T23:07:40.511Z,27.27
2019-05-25T23:10:10.713Z,23.80
2019-05-25T23:12:39.193Z,20.00
2019-05-25T23:15:09.637Z,20.77
2019-05-25T23:17:38.516Z,23.38
2019-05-25T23:20:08.140Z,21.07
2019-05-25T23:22:36.864Z,20.57
2019-05-25T23:25:08.199Z,24.47
2019-05-25T23:27:41.020Z,21.53
2019-05-25T23:30:10.873Z,20.07
2019-05-25T23:32:39.515Z,29.63
2019-05-25T23:35:08.485Z,27.00
2019-05-25T23:37:38.434Z,21.60
2019-05-25T23:40:10.298Z,20.00
2019-05-25T23:42:38.840Z,23.07
2019-05-25T23:45:11.774Z,22.47
2019-05-25T23:47:40.255Z,22.22
2019-05-25T23:50:13.573Z,20.43
2019-05-25T23:52:42.157Z,22.23
2019-05-25T23:55:12.499Z,23.20
2019-05-25T23:57:40.970Z,23.10
